createdAt,value
2023-01-18T00:01:22.019Z,13.43
2023-01-18T00:03:49.283Z,12.40
2023-01-18T00:06:17.904Z,13.90
2023-01-18T00:08:45.252Z,13.32
2023-01-18T00:11:17.107Z,12.55
2023-01-18T00:13:47.235Z,12.25
2023-01-18T00:16:19.663Z,12.68
2023-01-18T00:19:00.085Z,13.23
2023-01-18T00:21:28.252Z,10.63
2023-01-18T00:23:56.793Z,12.15
2023-01-18T00:26:26.443Z,11.70
2023-01-18T00:28:58.629Z,11.55
2023-01-18T00:31:25.967Z,11.65
2023-01-18T00:33:53.251Z,11.93
2023-01-18T00:36:22.950Z,12.52
2023-01-18T00:38:54.249Z,11.15
2023-01-18T00:41:22.813Z,11.95
2023-01-18T00:43:52.859Z,10.98
2023-01-18T00:46:27.546Z,11.07
2023-01-18T00:48:55.553Z,10.57
2023-01-18T00:51:27.839Z,10.55
2023-01-18T00:53:55.103Z,11.07
2023-01-18T00:56:30.266Z,10.80
2023-01-18T00:58:57.559Z,11.48
2023-01-18T01:01:29.711Z,10.80
2023-01-18T01:04:15.673Z,11.15
2023-01-18T01:06:46.099Z,11.05
2023-01-18T01:09:27.345Z,10.63
2023-01-18T01:12:16.443Z,10.38
2023-01-18T01:15:06.439Z,10.50
2023-01-18T01:17:55.713Z,10.75
2023-01-18T01:20:42.949Z,10.32
2023-01-18T01:23:35.967Z,10.13
2023-01-18T01:26:13.784Z,10.60
2023-01-18T01:28:50.342Z,9.65
2023-01-18T01:31:19.176Z,9.77
2023-01-18T01:33:50.136Z,9.15
2023-01-18T01:36:25.832Z,10.00
2023-01-18T01:38:55.752Z,9.35
2023-01-18T01:41:28.818Z,9.68
2023-01-18T01:43:57.179Z,9.57
2023-01-18T01:46:30.572Z,9.05
2023-01-18T01:49:19.397Z,9.02
2023-01-18T01:51:51.011Z,9.75
2023-01-18T01:54:26.939Z,9.00
2023-01-18T01:56:59.737Z,8.73
2023-01-18T01:59:27.103Z,9.77
2023-01-18T02:01:54.477Z,9.65
2023-01-18T02:04:21.823Z,9.57
2023-01-18T02:06:49.101Z,8.23
2023-01-18T02:09:22.946Z,9.10
2023-01-18T02:11:53.374Z,9.45
2023-01-18T02:14:27.466Z,9.57
2023-01-18T02:17:25.998Z,9.50
2023-01-18T02:20:08.265Z,9.60
2023-01-18T02:22:47.848Z,10.10
2023-01-18T02:25:29.900Z,9.15
2023-01-18T02:28:06.315Z,9.00
2023-01-18T02:30:43.679Z,9.65
2023-01-18T02:33:18.613Z,8.80
2023-01-18T02:35:59.578Z,9.48
2023-01-18T02:38:40.884Z,10.23
2023-01-18T02:41:47.957Z,9.13
2023-01-18T02:44:38.356Z,9.27
2023-01-18T02:47:07.563Z,9.02
2023-01-18T02:49:34.940Z,9.45
2023-01-18T02:52:28.555Z,10.20
2023-01-18T02:54:58.074Z,9.50
2023-01-18T02:57:25.559Z,9.40
2023-01-18T02:59:55.481Z,10.00
2023-01-18T03:02:26.384Z,9.35
2023-01-18T03:04:57.954Z,9.70
2023-01-18T03:07:36.078Z,9.43
2023-01-18T03:10:07.070Z,9.43
2023-01-18T03:13:21.381Z,9.02
2023-01-18T03:16:03.283Z,8.90
2023-01-18T03:19:00.192Z,7.85
2023-01-18T03:21:36.271Z,8.80
2023-01-18T03:24:08.259Z,9.07
2023-01-18T03:26:47.076Z,8.63
2023-01-18T03:29:36.485Z,8.52
2023-01-18T03:32:30.991Z,8.25
2023-01-18T03:35:11.844Z,8.80
2023-01-18T03:37:44.883Z,8.75
2023-01-18T03:40:17.397Z,8.20
2023-01-18T03:43:03.453Z,9.23
2023-01-18T03:45:32.881Z,8.50
2023-01-18T03:48:01.754Z,8.43
2023-01-18T03:51:02.903Z,7.38
2023-01-18T03:53:40.152Z,7.80
2023-01-18T03:56:16.178Z,7.25
2023-01-18T03:58:49.741Z,7.50
2023-01-18T04:01:21.809Z,8.13
2023-01-18T04:03:49.176Z,8.52
2023-01-18T04:06:16.600Z,7.65
2023-01-18T04:08:46.288Z,7.47
2023-01-18T04:11:15.746Z,7.43
2023-01-18T04:13:43.134Z,7.97
2023-01-18T04:16:10.583Z,7.00
2023-01-18T04:18:38.462Z,7.70
2023-01-18T04:21:08.093Z,8.15
2023-01-18T04:23:37.422Z,7.88
2023-01-18T04:26:04.918Z,8.18
2023-01-18T04:28:34.907Z,7.90
2023-01-18T04:31:02.224Z,8.00
2023-01-18T04:33:29.510Z,8.73
2023-01-18T04:35:59.277Z,7.53
2023-01-18T04:38:26.554Z,7.47
2023-01-18T04:40:56.348Z,8.05
2023-01-18T04:43:23.620Z,9.15
2023-01-18T04:45:55.603Z,8.20
2023-01-18T04:48:23.311Z,8.65
2023-01-18T04:50:51.195Z,8.30
2023-01-18T04:53:21.777Z,7.68
2023-01-18T04:55:51.285Z,8.57
2023-01-18T04:58:23.250Z,8.60
2023-01-18T05:00:50.614Z,8.80
2023-01-18T05:03:20.081Z,8.38
2023-01-18T05:05:47.393Z,8.25
2023-01-18T05:08:14.743Z,7.95
2023-01-18T05:10:44.369Z,8.38
2023-01-18T05:13:11.579Z,7.75
2023-01-18T05:15:40.916Z,8.40
2023-01-18T05:18:10.627Z,8.00
2023-01-18T05:20:40.051Z,7.55
2023-01-18T05:23:11.093Z,8.25
2023-01-18T05:25:41.412Z,8.32
2023-01-18T05:28:09.488Z,8.45
2023-01-18T05:30:42.167Z,7.75
2023-01-18T05:33:14.219Z,19.25
2023-01-18T05:35:46.868Z,11.38
2023-01-18T05:38:14.099Z,10.18
2023-01-18T05:40:45.832Z,9.60
2023-01-18T05:43:13.137Z,9.32
2023-01-18T05:45:43.133Z,9.90
2023-01-18T05:48:11.645Z,10.65
2023-01-18T05:50:43.587Z,10.02
2023-01-18T05:53:11.508Z,9.20
2023-01-18T05:55:41.194Z,8.63
2023-01-18T05:58:09.164Z,9.13
2023-01-18T06:00:38.597Z,9.32
2023-01-18T06:03:05.954Z,7.97
2023-01-18T06:05:33.195Z,8.68
2023-01-18T06:08:02.725Z,8.20
2023-01-18T06:10:32.226Z,8.55
2023-01-18T06:12:59.740Z,8.60
2023-01-18T06:15:29.554Z,7.95
2023-01-18T06:17:57.975Z,8.82
2023-01-18T06:20:25.601Z,9.13
2023-01-18T06:22:52.846Z,9.75
2023-01-18T06:25:20.455Z,9.13
2023-01-18T06:27:47.707Z,8.05
2023-01-18T06:30:15.904Z,8.25
2023-01-18T06:32:43.228Z,8.80
2023-01-18T06:35:10.529Z,8.38
2023-01-18T06:37:37.815Z,8.95
2023-01-18T06:40:05.738Z,9.25
2023-01-18T06:42:33.157Z,8.73
2023-01-18T06:45:00.486Z,8.88
2023-01-18T06:47:29.872Z,8.38
2023-01-18T06:49:59.358Z,8.82
2023-01-18T06:52:26.582Z,8.38
2023-01-18T06:54:53.860Z,8.15
2023-01-18T06:57:21.105Z,8.05
2023-01-18T06:59:48.352Z,7.93
2023-01-18T07:02:18.385Z,8.15
2023-01-18T07:04:45.725Z,8.05
2023-01-18T07:07:15.686Z,7.75
2023-01-18T07:09:45.306Z,8.95
2023-01-18T07:12:12.581Z,8.38
2023-01-18T07:14:39.849Z,9.38
2023-01-18T07:17:09.787Z,10.15
2023-01-18T07:19:37.125Z,9.73
2023-01-18T07:22:06.562Z,8.90
2023-01-18T07:24:33.864Z,8.98
2023-01-18T07:27:03.253Z,8.85
2023-01-18T07:29:30.941Z,8.88
2023-01-18T07:32:01.138Z,9.43
2023-01-18T07:34:28.655Z,9.60
2023-01-18T07:36:55.903Z,9.27
2023-01-18T07:39:23.155Z,7.85
2023-01-18T07:41:55.157Z,8.68
2023-01-18T07:44:22.462Z,8.85
2023-01-18T07:46:49.729Z,9.55
2023-01-18T07:49:19.416Z,11.13
2023-01-18T07:51:46.691Z,10.60
2023-01-18T07:54:17.274Z,10.70
2023-01-18T07:56:46.756Z,11.18
2023-01-18T07:59:14.021Z,9.98
2023-01-18T08:01:43.521Z,9.15
2023-01-18T08:04:11.149Z,9.23
2023-01-18T08:06:38.386Z,9.38
2023-01-18T08:09:05.809Z,8.48
2023-01-18T08:11:33.115Z,8.07
2023-01-18T08:14:03.365Z,8.18
2023-01-18T08:16:30.674Z,8.52
2023-01-18T08:18:57.987Z,8.40
2023-01-18T08:21:25.487Z,9.18
2023-01-18T08:23:55.864Z,9.50
2023-01-18T08:26:26.040Z,8.88
2023-01-18T08:28:53.445Z,7.68
2023-01-18T08:31:22.547Z,8.57
2023-01-18T08:33:51.002Z,8.25
2023-01-18T08:36:24.176Z,11.23
2023-01-18T08:41:21.393Z,8.63
2023-01-18T08:43:52.495Z,7.47
2023-01-18T08:46:20.288Z,8.70
2023-01-18T08:48:55.143Z,8.25
2023-01-18T08:51:23.515Z,9.05
2023-01-18T08:53:57.490Z,8.68
2023-01-18T08:56:25.894Z,8.57
2023-01-18T08:58:53.306Z,8.68
2023-01-18T09:01:23.155Z,7.70
2023-01-18T09:03:54.476Z,8.38
2023-01-18T09:06:22.321Z,7.28
2023-01-18T09:08:53.235Z,7.28
2023-01-18T09:11:20.659Z,7.50
2023-01-18T09:14:00.728Z,7.10
2023-01-18T09:16:29.996Z,7.20
2023-01-18T09:19:00.328Z,6.95
2023-01-18T09:21:28.671Z,5.57
2023-01-18T09:23:59.470Z,6.65
2023-01-18T09:26:27.893Z,7.10
2023-01-18T09:28:55.215Z,6.63
2023-01-18T09:31:26.299Z,9.23
2023-01-18T09:34:17.372Z,6.75
2023-01-18T09:36:46.492Z,6.30
2023-01-18T09:39:13.760Z,5.63
2023-01-18T09:41:44.703Z,5.47
2023-01-18T09:44:21.941Z,5.07
2023-01-18T09:47:05.275Z,6.65
2023-01-18T09:49:35.584Z,6.03
2023-01-18T09:52:27.103Z,5.88
2023-01-18T09:55:06.557Z,5.55
2023-01-18T09:57:50.959Z,6.00
2023-01-18T10:00:21.429Z,5.82
2023-01-18T10:02:55.418Z,7.05
2023-01-18T10:05:29.374Z,6.10
2023-01-18T10:08:16.598Z,6.15
2023-01-18T10:11:02.414Z,6.07
2023-01-18T10:14:09.523Z,5.57
2023-01-18T10:16:39.435Z,5.65
2023-01-18T10:19:24.383Z,5.25
2023-01-18T10:22:01.579Z,4.80
2023-01-18T10:24:47.364Z,5.28
2023-01-18T10:27:36.639Z,4.72
2023-01-18T10:30:35.943Z,4.53
2023-01-18T10:33:18.330Z,4.85
2023-01-18T10:35:49.956Z,4.15
2023-01-18T10:38:23.218Z,4.80
2023-01-18T10:41:03.565Z,4.97
2023-01-18T10:43:34.302Z,4.00
2023-01-18T10:46:10.560Z,5.03
2023-01-18T10:48:39.067Z,4.43
2023-01-18T10:51:09.455Z,5.30
2023-01-18T10:53:40.662Z,4.35
2023-01-18T10:56:19.188Z,4.20
2023-01-18T10:58:58.985Z,4.00
2023-01-18T11:01:36.770Z,4.00
2023-01-18T11:04:20.331Z,4.18
2023-01-18T11:07:02.028Z,3.92
2023-01-18T11:09:42.360Z,4.32
2023-01-18T11:12:41.435Z,4.38
2023-01-18T11:15:14.715Z,3.53
2023-01-18T11:17:57.875Z,3.88
2023-01-18T11:20:47.865Z,3.58
2023-01-18T11:23:21.164Z,3.50
2023-01-18T11:25:54.385Z,3.88
2023-01-18T11:28:45.833Z,3.95
2023-01-18T11:31:15.744Z,3.35
2023-01-18T11:33:56.206Z,3.42
2023-01-18T11:36:47.346Z,3.53
2023-01-18T11:39:32.947Z,4.10
2023-01-18T11:42:30.242Z,3.63
2023-01-18T11:45:03.745Z,3.35
2023-01-18T11:50:22.896Z,3.08
2023-01-18T11:52:57.028Z,2.88
2023-01-18T11:55:31.419Z,3.17
2023-01-18T11:58:00.039Z,3.05
2023-01-18T12:00:38.542Z,2.10
2023-01-18T12:03:58.015Z,3.13
2023-01-18T12:06:38.838Z,3.40
2023-01-18T12:09:36.241Z,2.35
2023-01-18T12:12:19.339Z,3.05
2023-01-18T12:15:00.898Z,2.70
2023-01-18T12:18:13.265Z,1.83
2023-01-18T12:21:02.473Z,2.25
2023-01-18T12:23:50.672Z,1.73
2023-01-18T12:26:20.914Z,1.60
2023-01-18T12:29:15.995Z,1.75
2023-01-18T12:32:08.761Z,1.92
2023-01-18T12:35:15.633Z,1.80
2023-01-18T12:38:31.671Z,1.92
2023-01-18T12:41:24.758Z,1.88
2023-01-18T12:44:08.711Z,1.45
2023-01-18T12:46:54.273Z,2.22
2023-01-18T12:49:22.975Z,2.30
2023-01-18T12:52:12.755Z,1.65
2023-01-18T12:55:03.663Z,2.00
2023-01-18T12:57:31.323Z,1.85
2023-01-18T13:00:27.605Z,1.85
2023-01-18T13:02:57.718Z,1.90
2023-01-18T13:05:35.437Z,1.50
2023-01-18T13:08:06.435Z,1.45
2023-01-18T13:10:37.735Z,1.60
2023-01-18T13:13:06.258Z,2.25
2023-01-18T13:15:53.867Z,1.90
2023-01-18T13:18:36.585Z,2.08
2023-01-18T13:21:20.180Z,2.42
2023-01-18T13:24:11.596Z,1.83
2023-01-18T13:26:40.170Z,1.95
2023-01-18T13:29:20.007Z,1.83
2023-01-18T13:31:47.429Z,2.08
2023-01-18T13:34:47.667Z,1.95
2023-01-18T13:37:40.466Z,2.28
2023-01-18T13:40:38.550Z,2.00
2023-01-18T13:43:33.013Z,2.10
2023-01-18T13:46:07.275Z,2.33
2023-01-18T13:48:47.913Z,2.58
2023-01-18T13:51:42.778Z,2.20
2023-01-18T13:54:15.320Z,2.20
2023-01-18T13:57:07.013Z,2.90
2023-01-18T13:59:37.810Z,2.80
2023-01-18T14:02:26.189Z,2.75
2023-01-18T14:05:25.075Z,2.58
2023-01-18T14:07:57.261Z,3.13
2023-01-18T14:10:37.964Z,3.10
2023-01-18T14:13:15.636Z,3.17
2023-01-18T14:15:43.032Z,2.42
2023-01-18T14:18:26.485Z,2.95
2023-01-18T14:21:11.993Z,2.35
2023-01-18T14:23:53.855Z,2.75
2023-01-18T14:26:22.418Z,2.28
2023-01-18T14:28:57.824Z,2.10
2023-01-18T14:31:30.700Z,2.00
2023-01-18T14:33:58.155Z,1.73
2023-01-18T14:36:28.248Z,2.10
2023-01-18T14:39:13.216Z,1.75
2023-01-18T14:41:50.344Z,1.98
2023-01-18T14:44:21.815Z,2.00
2023-01-18T14:47:00.444Z,1.90
2023-01-18T14:49:37.462Z,1.90
2023-01-18T14:52:08.571Z,1.90
2023-01-18T14:54:36.983Z,1.75
2023-01-18T14:57:08.973Z,1.75
2023-01-18T14:59:55.137Z,1.75
2023-01-18T15:02:27.047Z,1.98
2023-01-18T15:05:17.389Z,1.67
2023-01-18T15:07:56.154Z,1.90
2023-01-18T15:10:24.813Z,1.92
2023-01-18T15:12:59.038Z,1.52
2023-01-18T15:15:31.607Z,1.63
2023-01-18T15:18:11.586Z,1.63
2023-01-18T15:20:51.277Z,1.83
2023-01-18T15:23:18.681Z,1.90
2023-01-18T15:25:51.145Z,1.63
2023-01-18T15:28:24.500Z,1.92
2023-01-18T15:30:54.112Z,1.77
2023-01-18T15:33:24.128Z,2.10
2023-01-18T15:35:57.039Z,1.70
2023-01-18T15:38:24.449Z,2.20
2023-01-18T15:41:05.649Z,1.65
2023-01-18T15:43:42.724Z,2.10
2023-01-18T15:46:15.977Z,2.13
2023-01-18T15:48:53.592Z,1.83
2023-01-18T15:51:22.860Z,2.17
2023-01-18T15:53:55.980Z,2.38
2023-01-18T15:56:27.811Z,2.22
2023-01-18T15:58:57.306Z,2.17
2023-01-18T16:01:37.753Z,1.80
2023-01-18T16:04:23.217Z,1.80
2023-01-18T16:06:50.518Z,1.45
2023-01-18T16:09:23.123Z,2.15
2023-01-18T16:11:53.108Z,1.90
2023-01-18T16:14:33.703Z,1.92
2023-01-18T16:17:18.821Z,1.70
2023-01-18T16:19:53.129Z,2.20
2023-01-18T16:22:35.567Z,1.90
2023-01-18T16:25:10.436Z,2.35
2023-01-18T16:27:52.405Z,2.50
2023-01-18T16:30:38.264Z,2.83
2023-01-18T16:33:16.700Z,2.08
2023-01-18T16:35:44.743Z,2.53
2023-01-18T16:38:18.310Z,2.83
2023-01-18T16:40:49.416Z,2.70
2023-01-18T16:43:23.825Z,3.45
2023-01-18T16:45:54.682Z,3.38
2023-01-18T16:48:27.128Z,3.60
2023-01-18T16:50:59.788Z,3.20
2023-01-18T16:53:28.276Z,3.70
2023-01-18T16:55:56.717Z,3.88
2023-01-18T16:58:24.176Z,3.67
2023-01-18T17:00:59.239Z,3.63
2023-01-18T17:03:27.495Z,3.65
2023-01-18T17:05:57.556Z,4.45
2023-01-18T17:08:24.856Z,3.90
2023-01-18T17:10:52.511Z,4.28
2023-01-18T17:13:20.927Z,4.03
2023-01-18T17:15:48.779Z,4.40
2023-01-18T17:18:23.959Z,3.60
2023-01-18T17:20:53.863Z,4.32
2023-01-18T17:23:25.639Z,3.97
2023-01-18T17:25:53.007Z,4.78
2023-01-18T17:28:22.772Z,4.00
2023-01-18T17:30:50.413Z,3.90
2023-01-18T17:33:25.200Z,4.35
2023-01-18T17:35:54.443Z,4.60
2023-01-18T17:38:25.020Z,4.80
2023-01-18T17:40:53.112Z,5.47
2023-01-18T17:43:36.579Z,5.60
2023-01-18T17:46:05.666Z,5.55
2023-01-18T17:48:35.687Z,5.13
2023-01-18T17:51:06.688Z,4.55
2023-01-18T17:53:34.132Z,4.93
2023-01-18T17:56:01.391Z,5.13
2023-01-18T17:58:31.399Z,5.35
2023-01-18T18:01:12.180Z,5.15
2023-01-18T18:03:44.749Z,5.15
2023-01-18T18:06:14.413Z,6.00
2023-01-18T18:08:41.887Z,4.78
2023-01-18T18:11:10.990Z,5.45
2023-01-18T18:13:41.234Z,4.88
2023-01-18T18:16:13.880Z,6.15
2023-01-18T18:18:43.777Z,6.80
2023-01-18T18:21:13.368Z,5.25
2023-01-18T18:23:45.605Z,5.28
2023-01-18T18:26:15.105Z,6.13
2023-01-18T18:28:42.660Z,6.32
2023-01-18T18:31:15.936Z,5.18
2023-01-18T18:33:43.266Z,5.43
2023-01-18T18:36:10.577Z,3.85
2023-01-18T18:38:38.317Z,4.40
2023-01-18T18:41:08.886Z,4.43
2023-01-18T18:43:38.319Z,4.38
2023-01-18T18:46:10.920Z,3.97
2023-01-18T18:48:40.584Z,4.13
2023-01-18T18:51:07.923Z,4.47
2023-01-18T18:53:39.501Z,3.95
2023-01-18T18:56:10.198Z,4.65
2023-01-18T18:58:39.520Z,3.88
2023-01-18T19:01:08.600Z,4.30
2023-01-18T19:03:38.286Z,4.85
2023-01-18T19:06:05.713Z,4.35
2023-01-18T19:08:37.831Z,4.50
2023-01-18T19:11:05.195Z,4.30
2023-01-18T19:13:32.450Z,4.00
2023-01-18T19:16:00.084Z,4.07
2023-01-18T19:18:27.536Z,3.92
2023-01-18T19:20:54.829Z,4.55
2023-01-18T19:23:22.391Z,4.55
2023-01-18T19:25:51.774Z,4.10
2023-01-18T19:28:19.261Z,3.72
2023-01-18T19:30:46.621Z,3.92
2023-01-18T19:33:16.601Z,4.30
2023-01-18T19:35:49.176Z,3.95
2023-01-18T19:38:17.075Z,4.13
2023-01-18T19:40:44.360Z,4.32
2023-01-18T19:43:11.621Z,3.78
2023-01-18T19:45:38.950Z,4.03
2023-01-18T19:48:06.417Z,4.63
2023-01-18T19:50:33.613Z,5.15
2023-01-18T19:53:01.204Z,5.05
2023-01-18T19:55:28.754Z,4.60
2023-01-18T19:57:57.401Z,4.60
2023-01-18T20:00:25.752Z,4.47
2023-01-18T20:02:58.496Z,4.53
2023-01-18T20:05:26.203Z,6.65
2023-01-18T20:07:55.703Z,4.85
2023-01-18T20:10:30.286Z,5.07
2023-01-18T20:12:58.748Z,5.63
2023-01-18T20:15:26.200Z,5.80
2023-01-18T20:17:53.625Z,6.00
2023-01-18T20:20:31.878Z,5.32
2023-01-18T20:23:02.599Z,5.30
2023-01-18T20:25:31.651Z,5.35
2023-01-18T20:27:59.015Z,5.78
2023-01-18T20:30:26.466Z,6.15
2023-01-18T20:32:55.931Z,6.00
2023-01-18T20:35:27.482Z,6.20
2023-01-18T20:37:54.785Z,7.32
2023-01-18T20:40:26.773Z,7.32
2023-01-18T20:42:56.145Z,6.55
2023-01-18T20:45:28.232Z,6.45
2023-01-18T20:47:55.521Z,5.85
2023-01-18T20:50:24.182Z,6.13
2023-01-18T20:52:53.411Z,6.50
2023-01-18T20:55:21.648Z,5.75
2023-01-18T20:57:52.710Z,6.00
2023-01-18T21:00:20.387Z,6.63
2023-01-18T21:02:49.710Z,6.35
2023-01-18T21:05:17.033Z,6.55
2023-01-18T21:07:44.297Z,6.82
2023-01-18T21:10:12.016Z,6.70
2023-01-18T21:12:41.331Z,6.70
2023-01-18T21:15:09.501Z,6.47
2023-01-18T21:17:39.793Z,6.45
2023-01-18T21:20:10.394Z,7.07
2023-01-18T21:22:37.651Z,6.75
2023-01-18T21:25:05.167Z,6.45
2023-01-18T21:27:33.209Z,6.80
2023-01-18T21:30:00.534Z,6.22
2023-01-18T21:32:28.206Z,6.38
2023-01-18T21:34:57.894Z,6.75
2023-01-18T21:37:30.044Z,6.65
2023-01-18T21:39:58.236Z,7.00
2023-01-18T21:42:44.030Z,7.70
2023-01-18T21:45:30.236Z,7.63
2023-01-18T21:48:00.869Z,6.22
2023-01-18T21:50:47.178Z,6.22
2023-01-18T21:53:33.538Z,7.10
2023-01-18T21:56:03.590Z,6.95
2023-01-18T21:58:52.191Z,6.18
2023-01-18T22:01:23.106Z,6.40
2023-01-18T22:04:10.735Z,6.43
2023-01-18T22:06:38.531Z,6.40
2023-01-18T22:09:06.390Z,6.53
2023-01-18T22:11:33.826Z,6.20
2023-01-18T22:14:04.321Z,7.18
2023-01-18T22:16:34.527Z,7.05
2023-01-18T22:19:02.642Z,6.72
2023-01-18T22:21:32.572Z,7.22
2023-01-18T22:24:00.000Z,6.30
2023-01-18T22:26:29.613Z,7.32
2023-01-18T22:28:57.373Z,6.93
2023-01-18T22:31:25.244Z,6.95
2023-01-18T22:33:52.531Z,7.03
2023-01-18T22:36:19.808Z,7.28
2023-01-18T22:38:47.244Z,6.75
2023-01-18T22:41:20.262Z,7.20
2023-01-18T22:43:47.680Z,7.47
2023-01-18T22:46:19.921Z,7.25
2023-01-18T22:48:50.063Z,7.20
2023-01-18T22:51:22.882Z,7.10
2023-01-18T22:53:51.251Z,7.03
2023-01-18T22:56:23.353Z,6.47
2023-01-18T22:58:51.106Z,7.25
2023-01-18T23:01:21.412Z,7.60
2023-01-18T23:03:50.121Z,7.93
2023-01-18T23:06:19.089Z,6.82
2023-01-18T23:08:51.176Z,7.05
2023-01-18T23:11:29.092Z,6.45
2023-01-18T23:14:18.009Z,7.60
2023-01-18T23:17:06.287Z,6.80
2023-01-18T23:19:35.895Z,7.43
2023-01-18T23:22:08.348Z,7.30
2023-01-18T23:24:37.461Z,7.20
2023-01-18T23:27:07.097Z,7.45
2023-01-18T23:29:34.361Z,7.18
2023-01-18T23:32:01.697Z,7.28
2023-01-18T23:34:28.987Z,6.97
2023-01-18T23:36:58.546Z,6.75
2023-01-18T23:39:44.292Z,7.32
2023-01-18T23:42:30.181Z,7.00
2023-01-18T23:45:16.213Z,7.40
2023-01-18T23:48:02.369Z,7.22
2023-01-18T23:50:48.422Z,7.25
2023-01-18T23:53:36.498Z,6.95
2023-01-18T23:56:05.988Z,7.43
2023-01-18T23:58:33.264Z,7.78
